sensor_id;sensor_type;location;lat;lon;timestamp;pressure;altitude;pressure_sealevel;temperature;humidity
27980;BME280;15315;50.836;4.430;2023-04-02T00:03:16;100524.56;;;10.85;100.00
27980;BME280;15315;50.836;4.430;2023-04-02T00:13:24;100557.78;;;9.49;100.00
27980;BME280;15315;50.836;4.430;2023-04-02T00:23:28;100554.47;;;10.82;100.00
27980;BME280;15315;50.836;4.430;2023-04-02T00:33:30;100579.16;;;9.77;100.00
27980;BME280;15315;50.836;4.430;2023-04-02T00:43:37;100587.00;;;9.93;100.00
27980;BME280;15315;50.836;4.430;2023-04-02T00:53:39;100611.09;;;9.03;100.00
27980;BME280;15315;50.836;4.430;2023-04-02T01:03:40;100602.94;;;10.08;100.00
27980;BME280;15315;50.836;4.430;2023-04-02T01:24:04;100639.94;;;10.31;100.00
27980;BME280;15315;50.836;4.430;2023-04-02T01:34:08;100653.16;;;9.97;100.00
27980;BME280;15315;50.836;4.430;2023-04-02T01:44:12;100671.91;;;10.23;100.00
27980;BME280;15315;50.836;4.430;2023-04-02T01:54:16;100686.53;;;10.46;100.00
27980;BME280;15315;50.836;4.430;2023-04-02T02:04:17;100703.13;;;10.01;100.00
27980;BME280;15315;50.836;4.430;2023-04-02T02:14:21;100715.88;;;9.72;100.00
27980;BME280;15315;50.836;4.430;2023-04-02T02:24:28;100727.44;;;9.86;100.00
27980;BME280;15315;50.836;4.430;2023-04-02T02:34:43;100738.72;;;10.18;100.00
27980;BME280;15315;50.836;4.430;2023-04-02T02:44:46;100763.56;;;9.97;100.00
27980;BME280;15315;50.836;4.430;2023-04-02T02:54:58;100783.28;;;9.97;100.00
27980;BME280;15315;50.836;4.430;2023-04-02T03:05:00;100810.31;;;8.98;100.00
27980;BME280;15315;50.836;4.430;2023-04-02T03:15:17;100825.50;;;9.56;100.00
27980;BME280;15315;50.836;4.430;2023-04-02T03:25:40;100840.41;;;9.05;100.00
27980;BME280;15315;50.836;4.430;2023-04-02T03:35:46;100874.19;;;8.65;100.00
27980;BME280;15315;50.836;4.430;2023-04-02T03:45:53;100877.66;;;9.81;100.00
27980;BME280;15315;50.836;4.430;2023-04-02T03:55:55;100904.78;;;8.33;100.00
27980;BME280;15315;50.836;4.430;2023-04-02T04:05:59;100914.50;;;9.10;100.00
27980;BME280;15315;50.836;4.430;2023-04-02T04:16:15;100936.25;;;8.46;100.00
27980;BME280;15315;50.836;4.430;2023-04-02T04:36:26;100971.25;;;8.90;100.00
27980;BME280;15315;50.836;4.430;2023-04-02T04:46:33;100979.81;;;9.27;100.00
27980;BME280;15315;50.836;4.430;2023-04-02T04:56:36;101007.41;;;8.24;100.00
27980;BME280;15315;50.836;4.430;2023-04-02T05:06:43;101029.81;;;9.31;100.00
27980;BME280;15315;50.836;4.430;2023-04-02T05:16:50;101065.63;;;8.39;100.00
27980;BME280;15315;50.836;4.430;2023-04-02T05:26:57;101074.72;;;8.36;100.00
27980;BME280;15315;50.836;4.430;2023-04-02T05:37:00;101093.28;;;8.72;100.00
27980;BME280;15315;50.836;4.430;2023-04-02T05:47:05;101108.38;;;8.75;100.00
27980;BME280;15315;50.836;4.430;2023-04-02T05:57:24;101121.25;;;8.04;100.00
27980;BME280;15315;50.836;4.430;2023-04-02T06:18:15;101167.34;;;8.62;100.00
27980;BME280;15315;50.836;4.430;2023-04-02T06:28:23;101188.22;;;8.73;100.00
27980;BME280;15315;50.836;4.430;2023-04-02T06:38:28;101193.66;;;8.23;100.00
27980;BME280;15315;50.836;4.430;2023-04-02T06:48:30;101205.47;;;9.33;100.00
27980;BME280;15315;50.836;4.430;2023-04-02T06:58:32;101223.22;;;9.04;100.00
27980;BME280;15315;50.836;4.430;2023-04-02T07:08:32;101240.28;;;8.87;100.00
27980;BME280;15315;50.836;4.430;2023-04-02T07:18:33;101269.50;;;9.42;100.00
27980;BME280;15315;50.836;4.430;2023-04-02T07:28:34;101288.53;;;8.23;100.00
27980;BME280;15315;50.836;4.430;2023-04-02T07:38:34;101306.94;;;8.98;100.00
27980;BME280;15315;50.836;4.430;2023-04-02T07:48:34;101329.84;;;8.72;100.00
27980;BME280;15315;50.836;4.430;2023-04-02T07:58:35;101345.41;;;8.48;100.00
27980;BME280;15315;50.836;4.430;2023-04-02T08:08:35;101365.22;;;9.14;100.00
27980;BME280;15315;50.836;4.430;2023-04-02T08:18:36;101383.81;;;8.50;100.00
27980;BME280;15315;50.836;4.430;2023-04-02T08:28:36;101396.13;;;9.06;100.00
27980;BME280;15315;50.836;4.430;2023-04-02T08:38:37;101415.69;;;8.92;100.00
27980;BME280;15315;50.836;4.430;2023-04-02T08:48:39;101447.63;;;8.64;100.00
27980;BME280;15315;50.836;4.430;2023-04-02T09:08:49;101465.91;;;9.09;100.00
27980;BME280;15315;50.836;4.430;2023-04-02T09:18:51;101484.91;;;9.88;100.00
27980;BME280;15315;50.836;4.430;2023-04-02T09:39:17;101525.16;;;9.92;100.00
27980;BME280;15315;50.836;4.430;2023-04-02T09:49:20;101533.06;;;9.45;100.00
27980;BME280;15315;50.836;4.430;2023-04-02T09:59:21;101552.47;;;9.51;100.00
27980;BME280;15315;50.836;4.430;2023-04-02T10:09:34;101577.91;;;9.29;100.00
27980;BME280;15315;50.836;4.430;2023-04-02T10:19:41;101601.91;;;8.79;100.00
27980;BME280;15315;50.836;4.430;2023-04-02T10:30:00;101615.84;;;10.24;100.00
27980;BME280;15315;50.836;4.430;2023-04-02T11:00:35;101644.72;;;10.22;100.00
27980;BME280;15315;50.836;4.430;2023-04-02T11:10:39;101664.97;;;9.96;100.00
27980;BME280;15315;50.836;4.430;2023-04-02T11:30:47;101695.09;;;9.34;100.00
27980;BME280;15315;50.836;4.430;2023-04-02T11:40:52;101704.66;;;10.10;100.00
27980;BME280;15315;50.836;4.430;2023-04-02T11:50:56;101715.75;;;10.04;99.76
27980;BME280;15315;50.836;4.430;2023-04-02T12:11:33;101765.84;;;9.55;99.97
27980;BME280;15315;50.836;4.430;2023-04-02T12:21:36;101762.81;;;10.48;95.26
27980;BME280;15315;50.836;4.430;2023-04-02T12:31:42;101773.44;;;10.17;98.95
27980;BME280;15315;50.836;4.430;2023-04-02T12:41:42;101785.44;;;10.45;94.82
27980;BME280;15315;50.836;4.430;2023-04-02T12:51:43;101799.16;;;9.52;95.63
27980;BME280;15315;50.836;4.430;2023-04-02T13:01:55;101798.69;;;10.83;90.84
27980;BME280;15315;50.836;4.430;2023-04-02T13:11:56;101804.69;;;10.88;89.77
27980;BME280;15315;50.836;4.430;2023-04-02T13:22:01;101815.22;;;10.25;88.96
27980;BME280;15315;50.836;4.430;2023-04-02T13:32:09;101821.75;;;10.38;88.44
27980;BME280;15315;50.836;4.430;2023-04-02T13:42:11;101841.00;;;11.15;89.59
27980;BME280;15315;50.836;4.430;2023-04-02T13:52:14;101849.28;;;9.55;91.67
27980;BME280;15315;50.836;4.430;2023-04-02T14:02:17;101854.59;;;11.45;84.85
27980;BME280;15315;50.836;4.430;2023-04-02T14:12:27;101876.38;;;10.06;85.35
27980;BME280;15315;50.836;4.430;2023-04-02T14:22:43;101879.66;;;11.31;82.55
27980;BME280;15315;50.836;4.430;2023-04-02T14:54:03;101920.66;;;11.22;86.58
27980;BME280;15315;50.836;4.430;2023-04-02T15:04:11;101933.97;;;10.04;88.91
27980;BME280;15315;50.836;4.430;2023-04-02T15:14:20;101932.81;;;9.91;89.60
27980;BME280;15315;50.836;4.430;2023-04-02T15:55:32;101969.34;;;10.15;87.86
27980;BME280;15315;50.836;4.430;2023-04-02T16:15:48;101992.72;;;8.56;97.49
27980;BME280;15315;50.836;4.430;2023-04-02T16:26:07;102006.44;;;9.52;94.00
27980;BME280;15315;50.836;4.430;2023-04-02T17:17:16;102072.44;;;9.81;81.04
27980;BME280;15315;50.836;4.430;2023-04-02T17:27:37;102089.63;;;9.78;78.70
27980;BME280;15315;50.836;4.430;2023-04-02T17:37:43;102101.28;;;9.98;76.77
27980;BME280;15315;50.836;4.430;2023-04-02T17:47:53;102124.94;;;9.91;77.27
27980;BME280;15315;50.836;4.430;2023-04-02T18:08:43;102138.25;;;10.53;74.80
27980;BME280;15315;50.836;4.430;2023-04-02T18:19:12;102137.56;;;10.67;74.66
27980;BME280;15315;50.836;4.430;2023-04-02T18:40:12;102177.53;;;10.77;73.63
27980;BME280;15315;50.836;4.430;2023-04-02T18:50:38;102186.03;;;11.05;74.34
27980;BME280;15315;50.836;4.430;2023-04-02T19:00:42;102190.16;;;10.58;74.49
27980;BME280;15315;50.836;4.430;2023-04-02T19:10:46;102200.69;;;11.00;75.13
27980;BME280;15315;50.836;4.430;2023-04-02T19:20:58;102214.13;;;11.01;76.16
27980;BME280;15315;50.836;4.430;2023-04-02T19:41:42;102231.31;;;10.62;75.88
27980;BME280;15315;50.836;4.430;2023-04-02T19:51:50;102235.66;;;10.84;77.10
27980;BME280;15315;50.836;4.430;2023-04-02T20:01:51;102237.47;;;10.84;79.13
27980;BME280;15315;50.836;4.430;2023-04-02T20:11:51;102241.19;;;10.81;81.01
27980;BME280;15315;50.836;4.430;2023-04-02T20:21:51;102260.50;;;10.91;81.99
27980;BME280;15315;50.836;4.430;2023-04-02T20:31:52;102257.31;;;10.44;84.36
27980;BME280;15315;50.836;4.430;2023-04-02T20:41:52;102266.97;;;10.68;83.79
27980;BME280;15315;50.836;4.430;2023-04-02T20:51:52;102285.97;;;9.63;82.93
27980;BME280;15315;50.836;4.430;2023-04-02T21:01:53;102286.69;;;10.10;84.28
27980;BME280;15315;50.836;4.430;2023-04-02T21:11:54;102302.38;;;9.78;83.80
27980;BME280;15315;50.836;4.430;2023-04-02T21:21:54;102313.22;;;9.55;83.37
27980;BME280;15315;50.836;4.430;2023-04-02T21:31:54;102322.72;;;9.20;84.83
27980;BME280;15315;50.836;4.430;2023-04-02T21:41:55;102322.63;;;9.22;83.71
27980;BME280;15315;50.836;4.430;2023-04-02T21:51:55;102330.78;;;8.96;83.52
27980;BME280;15315;50.836;4.430;2023-04-02T22:01:56;102329.38;;;8.86;82.06
27980;BME280;15315;50.836;4.430;2023-04-02T22:11:57;102343.09;;;8.80;82.54
27980;BME280;15315;50.836;4.430;2023-04-02T22:22:01;102349.78;;;8.68;84.76
27980;BME280;15315;50.836;4.430;2023-04-02T22:32:02;102339.75;;;8.96;83.61
27980;BME280;15315;50.836;4.430;2023-04-02T22:42:02;102351.00;;;8.83;83.70
27980;BME280;15315;50.836;4.430;2023-04-02T22:52:02;102348.75;;;9.20;81.70
27980;BME280;15315;50.836;4.430;2023-04-02T23:02:05;102348.91;;;8.91;81.31
27980;BME280;15315;50.836;4.430;2023-04-02T23:12:05;102348.34;;;8.58;83.64
27980;BME280;15315;50.836;4.430;2023-04-02T23:22:06;102345.50;;;8.87;83.22
27980;BME280;15315;50.836;4.430;2023-04-02T23:32:06;102356.53;;;8.80;81.85
27980;BME280;15315;50.836;4.430;2023-04-02T23:42:07;102358.00;;;8.39;84.07
27980;BME280;15315;50.836;4.430;2023-04-02T23:52:08;102357.50;;;8.52;84.52
